Time;durP1;ratioP1;P1;durP2;ratioP2;P2;SDS_P1;SDS_P2;PMS_P1;PMS_P2;Temp;Humidity;BMP_temperature;BMP_pressure;BME280_temperature;BME280_humidity;BME280_pressure;Samples;Min_cycle;Max_cycle;Signal;HPM_P1;HPM_P2
2022/11/26 00:02:00;;;;;;;64.57;28.90;;;4.40;99.90;;;;;;5134437;27;20201;-75
2022/11/26 00:04:28;;;;;;;59.17;28.80;;;4.40;99.90;;;;;;5134383;27;20201;-76
2022/11/26 00:06:56;;;;;;;58.67;30.17;;;4.50;99.90;;;;;;5134484;27;20219;-82
2022/11/26 00:09:25;;;;;;;55.67;27.53;;;4.50;99.90;;;;;;5134252;27;20193;-71
2022/11/26 00:11:53;;;;;;;55.83;28.30;;;4.50;99.90;;;;;;5134409;27;20780;-83
2022/11/26 00:14:23;;;;;;;50.10;27.47;;;4.50;99.90;;;;;;5134331;27;20199;-71
2022/11/26 00:16:51;;;;;;;50.33;26.27;;;4.50;99.90;;;;;;5134446;27;20663;-78
2022/11/26 00:19:20;;;;;;;49.87;28.97;;;4.50;99.90;;;;;;5134358;27;20204;-77
2022/11/26 00:21:48;;;;;;;52.60;26.50;;;4.50;99.90;;;;;;5134066;27;20194;-87
2022/11/26 00:24:26;;;;;;;51.83;27.10;;;4.50;99.90;;;;;;5133846;27;20201;-78
2022/11/26 00:26:57;;;;;;;55.93;26.87;;;4.50;99.90;;;;;;5133885;27;20224;-66
2022/11/26 00:29:27;;;;;;;56.40;27.23;;;4.50;99.90;;;;;;5133879;27;20200;-66
2022/11/26 00:31:55;;;;;;;52.07;28.17;;;4.50;99.90;;;;;;5133720;27;20205;-67
2022/11/26 00:34:24;;;;;;;54.40;27.83;;;4.50;99.90;;;;;;5133653;27;20280;-66
2022/11/26 00:36:52;;;;;;;55.83;26.80;;;4.40;99.90;;;;;;5133698;27;20734;-69
2022/11/26 00:39:23;;;;;;;53.57;27.90;;;4.40;99.90;;;;;;5133816;27;20198;-67
2022/11/26 00:41:52;;;;;;;54.77;28.90;;;4.40;99.90;;;;;;5115427;27;20655;-65
2022/11/26 00:44:22;;;;;;;57.00;28.53;;;4.40;99.90;;;;;;5133828;27;20221;-66
2022/11/26 00:46:52;;;;;;;53.03;26.87;;;4.50;99.90;;;;;;5115233;27;20202;-66
2022/11/26 00:49:21;;;;;;;45.73;26.60;;;4.60;99.90;;;;;;5133498;27;20695;-70
2022/11/26 00:51:49;;;;;;;51.17;26.73;;;4.60;99.90;;;;;;5133503;27;20569;-75
2022/11/26 00:54:19;;;;;;;52.40;27.40;;;4.50;99.90;;;;;;5133384;27;20588;-75
2022/11/26 00:56:49;;;;;;;52.20;27.27;;;4.60;99.90;;;;;;5133362;27;20202;-73
2022/11/26 00:59:20;;;;;;;49.73;27.13;;;4.50;99.90;;;;;;5133228;27;20568;-65
2022/11/26 01:01:49;;;;;;;55.93;29.03;;;4.50;99.90;;;;;;5132806;27;20255;-66
2022/11/26 01:04:19;;;;;;;49.57;27.50;;;4.50;99.90;;;;;;5133284;27;20618;-78
2022/11/26 01:06:47;;;;;;;56.47;28.47;;;4.70;99.90;;;;;;5133166;27;20202;-70
2022/11/26 01:09:19;;;;;;;50.90;26.97;;;4.80;99.90;;;;;;5133007;27;20221;-67
2022/11/26 01:11:48;;;;;;;55.93;29.60;;;4.80;99.90;;;;;;5133050;27;20215;-80
2022/11/26 01:14:21;;;;;;;52.90;27.67;;;4.80;99.90;;;;;;5133190;27;20223;-66
2022/11/26 01:16:53;;;;;;;54.20;28.60;;;4.70;99.90;;;;;;5133139;27;20293;-66
2022/11/26 01:19:30;;;;;;;56.60;27.77;;;4.60;99.90;;;;;;5133281;27;20562;-66
2022/11/26 01:21:59;;;;;;;53.40;26.00;;;4.60;99.90;;;;;;5132981;27;20218;-68
2022/11/26 01:24:28;;;;;;;51.60;26.83;;;4.60;99.90;;;;;;5132917;27;20200;-66
2022/11/26 01:26:56;;;;;;;44.43;24.50;;;4.50;99.90;;;;;;5132789;27;20686;-82
2022/11/26 01:29:24;;;;;;;44.87;24.30;;;4.50;99.90;;;;;;5132601;27;20722;-74
2022/11/26 01:31:52;;;;;;;48.97;25.50;;;4.50;99.90;;;;;;5133255;27;20558;-70
2022/11/26 01:34:22;;;;;;;42.73;23.67;;;4.50;99.90;;;;;;5132933;27;20269;-68
2022/11/26 01:36:51;;;;;;;47.40;24.13;;;4.50;99.90;;;;;;5133007;27;20219;-66
2022/11/26 01:39:21;;;;;;;51.40;25.67;;;4.50;99.90;;;;;;5132768;27;20209;-65
2022/11/26 01:41:54;;;;;;;51.20;25.43;;;4.50;99.90;;;;;;5132726;27;20193;-66
2022/11/26 01:44:25;;;;;;;48.17;26.07;;;4.40;99.90;;;;;;5132730;28;20196;-66
2022/11/26 01:46:54;;;;;;;55.87;26.10;;;4.50;99.90;;;;;;5132850;28;20273;-67
2022/11/26 01:49:26;;;;;;;50.93;24.33;;;4.40;99.90;;;;;;5132893;28;20221;-86
2022/11/26 01:52:03;;;;;;;43.40;25.03;;;4.40;99.90;;;;;;5132656;28;20198;-68
2022/11/26 01:54:34;;;;;;;51.37;26.57;;;4.50;99.90;;;;;;5132594;28;20186;-67
2022/11/26 01:57:07;;;;;;;44.90;24.57;;;4.40;99.90;;;;;;5132497;28;20190;-82
2022/11/26 01:59:39;;;;;;;49.07;25.03;;;4.40;99.90;;;;;;5132538;28;20213;-65
2022/11/26 02:02:08;;;;;;;41.70;23.40;;;4.40;99.90;;;;;;5132671;28;20189;-66
2022/11/26 02:04:41;;;;;;;47.57;23.37;;;4.40;99.90;;;;;;5132796;28;20205;-68
2022/11/26 02:07:10;;;;;;;41.23;22.97;;;4.30;99.90;;;;;;5113909;28;20226;-70
2022/11/26 02:09:39;;;;;;;37.87;21.60;;;4.40;99.90;;;;;;5132349;28;20224;-73
2022/11/26 02:12:07;;;;;;;40.63;22.83;;;4.40;99.90;;;;;;5134183;27;20675;-71
2022/11/26 02:14:39;;;;;;;46.30;22.90;;;4.40;99.90;;;;;;5136536;27;20678;-66
2022/11/26 02:17:17;;;;;;;43.60;23.63;;;4.50;99.90;;;;;;5136412;27;20568;-71
2022/11/26 02:20:33;;;;;;;43.17;23.77;;;4.60;99.90;;;;;;5136392;27;20202;-68
2022/11/26 02:23:36;;;;;;;42.10;23.07;;;4.70;99.90;;;;;;5136450;27;20242;-67
2022/11/26 02:26:48;;;;;;;42.90;22.60;;;4.60;99.90;;;;;;5136204;27;20196;-72
2022/11/26 02:29:26;;;;;;;44.37;23.90;;;4.50;99.90;;;;;;5136164;27;20225;-74
2022/11/26 02:32:02;;;;;;;42.77;23.67;;;4.50;99.90;;;;;;5136377;27;20205;-66
2022/11/26 02:34:38;;;;;;;46.77;23.43;;;4.50;99.90;;;;;;5136015;27;20256;-73
2022/11/26 02:37:13;;;;;;;43.30;24.10;;;4.40;99.90;;;;;;5136140;27;20236;-70
2022/11/26 02:39:41;;;;;;;41.03;21.80;;;4.40;99.90;;;;;;5135959;27;20190;-72
2022/11/26 02:42:24;;;;;;;42.60;23.30;;;4.30;99.90;;;;;;5135897;27;20193;-68
2022/11/26 02:44:55;;;;;;;44.40;21.97;;;4.30;99.90;;;;;;5136108;27;20301;-68
2022/11/26 02:47:27;;;;;;;44.83;23.47;;;4.30;99.90;;;;;;5136301;27;20206;-66
2022/11/26 02:49:58;;;;;;;44.17;24.63;;;4.20;99.90;;;;;;5136131;27;20251;-87
2022/11/26 02:52:28;;;;;;;43.23;22.50;;;4.20;99.90;;;;;;5136082;27;20296;-71
2022/11/26 02:54:57;;;;;;;43.67;23.73;;;4.30;99.90;;;;;;5117474;27;20675;-69
2022/11/26 02:57:29;;;;;;;44.27;24.73;;;4.40;99.90;;;;;;5135711;27;20217;-75
2022/11/26 02:59:58;;;;;;;45.30;24.10;;;4.60;99.90;;;;;;5135694;27;20666;-76
2022/11/26 03:02:36;;;;;;;42.13;23.37;;;4.60;99.90;;;;;;5135945;27;20249;-74
2022/11/26 03:05:08;;;;;;;57.33;27.03;;;4.40;99.90;;;;;;5135692;27;20195;-71
2022/11/26 03:07:37;;;;;;;50.47;28.13;;;4.40;99.90;;;;;;5135604;27;20202;-85
2022/11/26 03:10:07;;;;;;;46.93;25.17;;;4.30;99.90;;;;;;5135358;27;20582;-66
2022/11/26 03:12:38;;;;;;;44.13;24.63;;;4.30;99.90;;;;;;5095531;28;20200;-83
2022/11/26 03:15:07;;;;;;;45.27;24.63;;;4.20;99.90;;;;;;5112693;28;20210;-78
2022/11/26 03:17:37;;;;;;;41.83;23.30;;;4.20;99.90;;;;;;5112592;28;20198;-66
2022/11/26 03:20:07;;;;;;;46.43;24.63;;;4.20;99.90;;;;;;5112787;28;20239;-69
2022/11/26 03:22:36;;;;;;;46.27;25.40;;;4.10;99.90;;;;;;5112578;28;20267;-81
2022/11/26 03:25:05;;;;;;;49.60;24.87;;;4.10;99.90;;;;;;5111429;28;20647;-74
2022/11/26 03:27:34;;;;;;;40.80;23.37;;;4.10;99.90;;;;;;5112539;28;20678;-73
2022/11/26 03:30:03;;;;;;;41.23;22.97;;;4.10;99.90;;;;;;5116545;27;20738;-84
2022/11/26 03:32:31;;;;;;;44.43;23.50;;;4.20;99.90;;;;;;5116730;27;20202;-65
2022/11/26 03:35:01;;;;;;;41.93;21.90;;;4.20;99.90;;;;;;5134584;27;20226;-72
2022/11/26 03:37:29;;;;;;;45.53;24.03;;;4.20;99.90;;;;;;5134682;27;20208;-66
2022/11/26 03:39:57;;;;;;;48.93;24.17;;;4.30;99.90;;;;;;5134940;27;20739;-79
2022/11/26 03:42:26;;;;;;;49.53;25.67;;;4.30;99.90;;;;;;5134943;27;20213;-85
2022/11/26 03:44:54;;;;;;;42.57;23.73;;;4.20;99.90;;;;;;5134828;27;20275;-79
2022/11/26 03:47:23;;;;;;;37.53;22.33;;;4.20;99.90;;;;;;5115329;27;20202;-86
2022/11/26 03:49:51;;;;;;;43.30;23.77;;;4.20;99.90;;;;;;5134682;27;20218;-66
2022/11/26 03:52:21;;;;;;;45.37;23.80;;;4.20;99.90;;;;;;5134457;27;20201;-73
2022/11/26 03:54:49;;;;;;;40.33;24.17;;;4.10;99.90;;;;;;5134636;27;20202;-70
2022/11/26 03:57:19;;;;;;;42.00;23.00;;;4.10;99.90;;;;;;5134368;27;20566;-77
2022/11/26 03:59:47;;;;;;;42.83;22.17;;;4.10;99.90;;;;;;5134417;27;20759;-65
2022/11/26 04:02:15;;;;;;;40.90;21.03;;;4.10;99.90;;;;;;5134471;27;20198;-67
2022/11/26 04:04:43;;;;;;;43.30;21.80;;;4.10;99.90;;;;;;5134598;27;20186;-78
2022/11/26 04:07:12;;;;;;;41.53;22.73;;;4.20;99.90;;;;;;5134362;27;20566;-70
2022/11/26 04:09:42;;;;;;;39.17;22.57;;;4.20;99.90;;;;;;5134282;27;20311;-77
2022/11/26 04:12:10;;;;;;;40.37;22.53;;;4.20;99.90;;;;;;5134445;27;20197;-80
2022/11/26 04:14:38;;;;;;;38.00;23.27;;;4.20;99.90;;;;;;5134365;27;20208;-81
2022/11/26 04:17:07;;;;;;;36.63;21.90;;;4.20;99.90;;;;;;5134313;27;20651;-79
2022/11/26 04:19:35;;;;;;;37.83;21.33;;;4.20;99.90;;;;;;5134160;27;20180;-67
2022/11/26 04:22:03;;;;;;;37.37;21.77;;;4.10;99.90;;;;;;5134067;27;20201;-75
2022/11/26 04:24:32;;;;;;;42.23;22.47;;;4.20;99.90;;;;;;5133947;27;20194;-66
2022/11/26 04:27:01;;;;;;;42.40;23.20;;;4.20;99.90;;;;;;5134010;27;20205;-70
2022/11/26 04:29:30;;;;;;;37.33;21.63;;;4.20;99.90;;;;;;5133823;27;20225;-73
2022/11/26 04:31:58;;;;;;;31.67;20.00;;;4.30;99.90;;;;;;5133792;27;20643;-82
2022/11/26 04:34:26;;;;;;;38.80;21.93;;;4.30;99.90;;;;;;5133582;27;20322;-70
2022/11/26 04:36:55;;;;;;;35.27;21.07;;;4.30;99.90;;;;;;5133350;27;20283;-83
2022/11/26 04:39:23;;;;;;;36.97;20.97;;;4.30;99.90;;;;;;5134219;27;20185;-77
2022/11/26 04:41:51;;;;;;;38.27;20.73;;;4.20;99.90;;;;;;5133685;27;20201;-69
2022/11/26 04:44:21;;;;;;;35.90;21.20;;;4.20;99.90;;;;;;5149028;27;20207;-77
2022/11/26 04:46:49;;;;;;;35.63;20.23;;;4.20;99.90;;;;;;5133423;27;20238;-66
2022/11/26 04:49:18;;;;;;;37.50;21.00;;;4.20;99.90;;;;;;5133368;27;20721;-69
2022/11/26 04:51:46;;;;;;;36.40;21.60;;;4.20;99.90;;;;;;5133319;27;20185;-70
2022/11/26 04:54:14;;;;;;;34.90;19.83;;;4.30;99.90;;;;;;5149209;27;20202;-76
2022/11/26 04:56:43;;;;;;;35.07;20.53;;;4.30;99.90;;;;;;5133221;27;20678;-79
2022/11/26 04:59:11;;;;;;;38.17;21.80;;;4.40;99.90;;;;;;5133466;27;20579;-69
2022/11/26 05:01:41;;;;;;;38.83;22.37;;;4.40;99.90;;;;;;5133351;27;20190;-76
2022/11/26 05:04:09;;;;;;;32.63;20.53;;;4.40;99.90;;;;;;5133404;27;20194;-75
2022/11/26 05:06:37;;;;;;;33.87;20.17;;;4.40;99.90;;;;;;5133318;27;20196;-65
2022/11/26 05:09:06;;;;;;;40.43;21.37;;;4.40;99.90;;;;;;5133260;27;20202;-77
2022/11/26 05:11:34;;;;;;;36.17;22.13;;;4.30;99.90;;;;;;5133137;27;20247;-66
2022/11/26 05:14:02;;;;;;;37.30;21.83;;;4.40;99.90;;;;;;5133102;27;20189;-74
2022/11/26 05:16:31;;;;;;;37.20;21.30;;;4.40;99.90;;;;;;5133508;27;20201;-82
2022/11/26 05:19:00;;;;;;;42.37;23.23;;;4.40;99.90;;;;;;5132884;27;20658;-76
2022/11/26 05:21:29;;;;;;;39.63;21.73;;;4.40;99.90;;;;;;5133083;27;20212;-75
2022/11/26 05:23:57;;;;;;;44.10;24.90;;;4.40;99.90;;;;;;5133168;27;20201;-67
2022/11/26 05:26:25;;;;;;;46.87;25.43;;;4.40;99.90;;;;;;5133774;27;20193;-66
2022/11/26 05:28:54;;;;;;;50.90;27.23;;;4.30;99.90;;;;;;5133527;27;20206;-75
2022/11/26 05:31:22;;;;;;;40.43;23.83;;;4.30;99.90;;;;;;5133501;27;20244;-65
2022/11/26 05:33:50;;;;;;;39.57;22.60;;;4.30;99.90;;;;;;5133117;27;20257;-87
2022/11/26 05:36:20;;;;;;;39.47;22.60;;;4.30;99.90;;;;;;5133132;27;20184;-67
2022/11/26 05:38:48;;;;;;;40.43;23.70;;;4.30;99.90;;;;;;5133197;27;20205;-87
2022/11/26 05:41:17;;;;;;;40.73;24.27;;;4.30;99.90;;;;;;5132852;27;20225;-69
2022/11/26 05:43:45;;;;;;;39.87;21.70;;;4.30;99.90;;;;;;5133264;28;20224;-73
2022/11/26 05:46:15;;;;;;;36.43;20.80;;;4.30;99.90;;;;;;5132599;27;20197;-74
2022/11/26 05:48:44;;;;;;;38.90;21.70;;;4.30;99.90;;;;;;5132985;28;20581;-66
2022/11/26 05:51:12;;;;;;;37.60;21.33;;;4.30;99.90;;;;;;5133023;28;20222;-87
2022/11/26 05:53:42;;;;;;;38.63;21.50;;;4.30;99.90;;;;;;5132796;28;20188;-86
2022/11/26 05:56:11;;;;;;;32.93;19.40;;;4.20;99.90;;;;;;5132668;28;20685;-72
2022/11/26 05:58:41;;;;;;;35.07;21.13;;;4.20;99.90;;;;;;5132600;28;20276;-78
2022/11/26 06:01:10;;;;;;;33.80;21.07;;;4.20;99.90;;;;;;5132734;27;20312;-75
2022/11/26 06:03:39;;;;;;;30.53;19.07;;;4.20;99.90;;;;;;5132754;27;20189;-87
2022/11/26 06:06:08;;;;;;;32.53;19.47;;;4.30;99.90;;;;;;5132540;28;20227;-82
2022/11/26 06:08:36;;;;;;;36.33;20.00;;;4.20;99.90;;;;;;5132456;28;20696;-69
2022/11/26 06:11:06;;;;;;;33.97;20.40;;;4.30;99.90;;;;;;5132453;28;20225;-69
2022/11/26 06:13:34;;;;;;;34.93;21.27;;;4.20;99.90;;;;;;5132601;28;20541;-70
2022/11/26 06:16:02;;;;;;;32.10;20.80;;;4.20;99.90;;;;;;5132306;28;20201;-65
2022/11/26 06:18:31;;;;;;;34.50;19.47;;;4.20;99.90;;;;;;5132197;28;20592;-65
2022/11/26 06:21:00;;;;;;;33.00;19.77;;;4.30;99.90;;;;;;5132412;28;20640;-79
2022/11/26 06:23:28;;;;;;;29.67;19.23;;;4.30;99.90;;;;;;5132161;28;20201;-80
2022/11/26 06:25:57;;;;;;;29.77;19.03;;;4.30;99.90;;;;;;5132284;28;20197;-81
2022/11/26 06:28:27;;;;;;;32.83;20.37;;;4.30;99.90;;;;;;5132350;28;20192;-78
2022/11/26 06:30:55;;;;;;;29.67;18.20;;;4.30;99.90;;;;;;5132486;28;20698;-67
2022/11/26 06:33:23;;;;;;;28.97;18.43;;;4.30;99.90;;;;;;5132075;28;20576;-65
2022/11/26 06:35:52;;;;;;;32.93;19.20;;;4.30;99.90;;;;;;5132134;28;20200;-67
2022/11/26 06:38:20;;;;;;;33.30;19.53;;;4.30;99.90;;;;;;5132017;28;20280;-66
2022/11/26 06:40:48;;;;;;;32.90;19.53;;;4.30;99.90;;;;;;5132078;28;20193;-65
2022/11/26 06:43:16;;;;;;;31.13;17.87;;;4.40;99.90;;;;;;5131904;28;20198;-67
2022/11/26 06:45:47;;;;;;;29.23;19.17;;;4.50;99.90;;;;;;5131960;28;20683;-65
2022/11/26 06:48:16;;;;;;;33.80;21.33;;;4.50;99.90;;;;;;5131965;28;20540;-66
2022/11/26 06:50:44;;;;;;;34.53;19.17;;;4.50;99.90;;;;;;5131879;28;20221;-70
2022/11/26 06:53:13;;;;;;;32.20;20.70;;;4.50;99.90;;;;;;5132252;28;20569;-66
2022/11/26 06:55:41;;;;;;;30.50;20.13;;;4.50;99.90;;;;;;5132107;28;20209;-69
2022/11/26 06:58:09;;;;;;;35.23;19.87;;;4.40;99.90;;;;;;5113608;28;20210;-72
2022/11/26 07:00:37;;;;;;;37.37;19.30;;;4.50;99.90;;;;;;5135598;27;20208;-66
2022/11/26 07:03:07;;;;;;;31.17;19.50;;;4.50;99.90;;;;;;5134203;27;20199;-66
2022/11/26 07:05:37;;;;;;;31.00;18.90;;;4.40;99.90;;;;;;5121230;27;20216;-66
2022/11/26 07:08:06;;;;;;;35.23;21.00;;;4.50;99.90;;;;;;5135409;27;20193;-65
2022/11/26 07:10:34;;;;;;;33.83;20.03;;;4.40;99.90;;;;;;5135231;27;20255;-65
2022/11/26 07:13:02;;;;;;;31.53;19.77;;;4.40;99.90;;;;;;5135178;27;20730;-70
2022/11/26 07:15:31;;;;;;;31.87;19.30;;;4.50;99.90;;;;;;5135298;27;20205;-70
2022/11/26 07:17:59;;;;;;;32.63;19.47;;;4.50;99.90;;;;;;5135162;27;20233;-70
2022/11/26 07:20:29;;;;;;;32.23;19.53;;;4.50;99.90;;;;;;5135275;27;20581;-69
2022/11/26 07:22:57;;;;;;;33.33;20.07;;;4.50;99.90;;;;;;5135229;27;20203;-66
2022/11/26 07:25:26;;;;;;;35.27;20.83;;;4.50;99.90;;;;;;5135208;27;20200;-65
2022/11/26 07:27:54;;;;;;;34.97;21.97;;;4.50;99.90;;;;;;5135133;27;20191;-74
2022/11/26 07:30:22;;;;;;;36.10;21.23;;;4.50;99.90;;;;;;5135015;27;20191;-66
2022/11/26 07:32:51;;;;;;;40.97;23.27;;;4.40;99.90;;;;;;5134857;27;20645;-66
2022/11/26 07:35:19;;;;;;;39.40;23.93;;;4.40;99.90;;;;;;5134543;27;20232;-66
2022/11/26 07:37:49;;;;;;;46.57;24.07;;;4.40;99.90;;;;;;5134812;27;20187;-64
2022/11/26 07:40:17;;;;;;;40.93;23.17;;;4.40;99.90;;;;;;5114775;27;20666;-64
2022/11/26 07:42:46;;;;;;;38.73;23.23;;;4.50;99.90;;;;;;5114718;28;20189;-65
2022/11/26 07:45:24;;;;;;;37.97;21.37;;;4.50;99.90;;;;;;5101755;27;20210;-64
2022/11/26 07:47:52;;;;;;;39.50;23.00;;;4.50;99.90;;;;;;5134913;27;20194;-67
2022/11/26 07:50:21;;;;;;;42.43;23.50;;;4.50;99.90;;;;;;5135217;27;20265;-64
2022/11/26 07:52:53;;;;;;;39.33;23.20;;;4.50;99.90;;;;;;5134407;27;20215;-65
2022/11/26 07:55:21;;;;;;;45.33;25.13;;;4.50;99.90;;;;;;5135010;27;20202;-67
2022/11/26 07:57:50;;;;;;;43.77;25.97;;;4.50;99.90;;;;;;5135044;27;20204;-76
2022/11/26 08:00:19;;;;;;;40.83;24.93;;;4.50;99.90;;;;;;5135655;27;20602;-75
2022/11/26 08:02:47;;;;;;;48.43;28.13;;;4.50;99.90;;;;;;5135028;27;20204;-66
2022/11/26 08:05:16;;;;;;;48.27;27.93;;;4.50;99.90;;;;;;5134781;27;20550;-65
2022/11/26 08:07:44;;;;;;;45.63;28.50;;;4.60;99.90;;;;;;5115734;27;20210;-64
2022/11/26 08:10:14;;;;;;;51.97;30.67;;;4.60;99.90;;;;;;5134578;27;20188;-70
2022/11/26 08:12:42;;;;;;;49.50;29.50;;;4.70;99.90;;;;;;5133541;27;20228;-65
2022/11/26 08:15:11;;;;;;;47.13;28.97;;;4.90;99.90;;;;;;5130892;27;20209;-66
2022/11/26 08:17:39;;;;;;;47.97;27.47;;;5.00;99.90;;;;;;5133689;27;20197;-64
2022/11/26 08:20:08;;;;;;;43.40;27.63;;;5.00;99.90;;;;;;5133600;27;20662;-64
2022/11/26 08:22:37;;;;;;;39.20;23.53;;;4.90;99.90;;;;;;5134149;27;20213;-65
2022/11/26 08:25:06;;;;;;;36.67;22.97;;;5.00;99.90;;;;;;5134023;27;20201;-69
2022/11/26 08:27:36;;;;;;;39.00;23.60;;;4.90;99.90;;;;;;5116215;27;20206;-90
2022/11/26 08:30:06;;;;;;;36.57;21.87;;;4.90;99.90;;;;;;5134437;27;20191;-69
2022/11/26 08:32:35;;;;;;;34.40;21.67;;;5.00;99.90;;;;;;5134340;27;20222;-66
2022/11/26 08:35:04;;;;;;;32.70;20.77;;;5.00;99.90;;;;;;5133779;27;20221;-66
2022/11/26 08:37:32;;;;;;;33.80;21.10;;;5.10;99.90;;;;;;5133720;27;20212;-67
2022/11/26 08:40:00;;;;;;;36.10;22.37;;;5.10;99.90;;;;;;5133916;27;20187;-68
2022/11/26 08:42:29;;;;;;;36.57;22.67;;;5.10;99.90;;;;;;5133981;27;20191;-65
2022/11/26 08:44:59;;;;;;;34.57;22.30;;;5.00;99.90;;;;;;5115145;27;20240;-79
2022/11/26 08:47:28;;;;;;;39.03;21.97;;;5.10;99.90;;;;;;5133950;27;20195;-67
2022/11/26 08:49:56;;;;;;;33.77;21.93;;;5.10;99.90;;;;;;5117907;27;20191;-67
2022/11/26 08:52:25;;;;;;;34.17;20.97;;;5.10;99.90;;;;;;5110241;28;20209;-66
2022/11/26 08:54:54;;;;;;;30.70;20.40;;;5.10;99.90;;;;;;5112594;28;20210;-67
2022/11/26 08:57:22;;;;;;;30.47;19.60;;;5.10;99.90;;;;;;5113687;28;20203;-69
2022/11/26 08:59:53;;;;;;;31.13;20.07;;;5.10;99.90;;;;;;5113218;28;20199;-64
2022/11/26 09:02:23;;;;;;;35.43;19.77;;;5.10;99.90;;;;;;5112586;28;20206;-64
2022/11/26 09:04:51;;;;;;;28.80;19.30;;;5.20;99.90;;;;;;5112553;28;20199;-64
2022/11/26 09:07:20;;;;;;;54.23;31.03;;;5.20;99.90;;;;;;5112402;28;20657;-70
2022/11/26 09:09:48;;;;;;;31.20;19.97;;;5.20;99.90;;;;;;5112532;28;20202;-66
2022/11/26 09:12:17;;;;;;;30.13;19.00;;;5.10;99.90;;;;;;5093990;28;20642;-64
2022/11/26 09:14:45;;;;;;;31.83;18.20;;;5.20;99.90;;;;;;5111922;28;20661;-65
2022/11/26 09:17:13;;;;;;;27.40;18.47;;;5.20;99.90;;;;;;5093833;28;20213;-65
2022/11/26 09:19:43;;;;;;;28.13;18.67;;;5.20;99.90;;;;;;5112215;28;20196;-68
2022/11/26 09:22:11;;;;;;;27.93;17.80;;;5.20;99.90;;;;;;5111960;28;20202;-66
2022/11/26 09:24:40;;;;;;;27.97;17.57;;;5.10;99.90;;;;;;5112353;28;20747;-66
2022/11/26 09:27:10;;;;;;;30.73;19.17;;;5.10;99.90;;;;;;5112109;28;20286;-65
2022/11/26 09:29:38;;;;;;;28.23;17.53;;;5.10;99.90;;;;;;5112238;28;20191;-68
2022/11/26 09:32:08;;;;;;;33.97;21.10;;;5.20;99.90;;;;;;5112013;28;20219;-65
2022/11/26 09:34:53;;;;;;;30.70;19.60;;;5.20;99.90;;;;;;5112053;28;20227;-65
2022/11/26 09:37:21;;;;;;;24.83;16.33;;;5.20;99.90;;;;;;5112075;28;20207;-64
2022/11/26 09:39:50;;;;;;;26.47;16.87;;;5.20;99.90;;;;;;5112162;28;20199;-65
2022/11/26 09:42:29;;;;;;;27.70;17.97;;;5.30;99.90;;;;;;5111885;28;20192;-65
2022/11/26 09:45:08;;;;;;;28.73;18.67;;;5.30;99.90;;;;;;5112083;28;20683;-67
2022/11/26 09:47:40;;;;;;;28.20;18.53;;;5.30;99.90;;;;;;5111991;28;20612;-65
2022/11/26 09:50:22;;;;;;;28.60;19.20;;;5.30;99.90;;;;;;5112105;28;20230;-64
2022/11/26 09:52:53;;;;;;;30.50;19.20;;;5.30;99.90;;;;;;5111819;28;20234;-66
2022/11/26 09:55:24;;;;;;;30.13;18.57;;;5.40;99.90;;;;;;5111911;28;20214;-65
2022/11/26 09:58:01;;;;;;;29.00;18.80;;;5.40;99.90;;;;;;5111850;28;20196;-65
2022/11/26 10:00:32;;;;;;;28.70;18.17;;;5.40;99.90;;;;;;5111978;28;20194;-66
2022/11/26 10:03:01;;;;;;;28.30;18.53;;;5.40;99.90;;;;;;5093762;28;20658;-65
2022/11/26 10:05:42;;;;;;;29.00;17.90;;;5.40;99.90;;;;;;5111819;28;20194;-66
2022/11/26 10:08:29;;;;;;;28.23;19.20;;;5.50;99.90;;;;;;5111783;28;20195;-71
2022/11/26 10:11:02;;;;;;;28.77;19.87;;;5.50;99.90;;;;;;5111851;28;20634;-70
2022/11/26 10:13:41;;;;;;;30.00;19.67;;;5.50;99.90;;;;;;5111433;28;20283;-68
2022/11/26 10:16:21;;;;;;;36.00;23.27;;;5.50;99.90;;;;;;5111737;28;20277;-66
2022/11/26 10:18:58;;;;;;;34.17;22.50;;;5.50;99.90;;;;;;5111718;28;20251;-80
2022/11/26 10:21:33;;;;;;;33.33;20.53;;;5.50;99.90;;;;;;5111716;28;20199;-65
2022/11/26 10:24:28;;;;;;;35.17;22.27;;;5.50;99.90;;;;;;5111686;28;20248;-64
2022/11/26 10:26:59;;;;;;;36.47;23.07;;;5.60;99.90;;;;;;5093446;28;20693;-72
2022/11/26 10:29:35;;;;;;;38.67;24.00;;;5.70;99.90;;;;;;5111556;28;20726;-66
2022/11/26 10:32:13;;;;;;;34.37;22.37;;;5.70;99.90;;;;;;5111554;28;20211;-66
2022/11/26 10:34:49;;;;;;;31.83;20.40;;;5.70;99.90;;;;;;5114146;28;20227;-71
2022/11/26 10:37:20;;;;;;;33.07;21.37;;;5.70;99.90;;;;;;5115472;28;20690;-66
2022/11/26 10:39:49;;;;;;;33.30;21.33;;;5.70;99.90;;;;;;5115783;28;20313;-68
2022/11/26 10:42:23;;;;;;;29.23;19.23;;;5.70;99.90;;;;;;5097121;28;20213;-86
2022/11/26 10:44:52;;;;;;;35.10;19.87;;;5.70;99.90;;;;;;5115249;28;20567;-65
2022/11/26 10:47:27;;;;;;;37.40;22.27;;;5.70;99.90;;;;;;5115204;28;20207;-65
2022/11/26 10:50:12;;;;;;;37.77;23.33;;;5.70;99.90;;;;;;5097167;28;20669;-65
2022/11/26 10:53:06;;;;;;;42.33;24.17;;;5.60;99.90;;;;;;5115417;28;20219;-66
2022/11/26 10:55:39;;;;;;;39.83;23.73;;;5.60;99.90;;;;;;5115285;28;20205;-68
2022/11/26 10:58:16;;;;;;;36.60;22.53;;;5.80;99.90;;;;;;5115109;28;20253;-65
2022/11/26 11:00:54;;;;;;;34.00;22.13;;;6.00;99.90;;;;;;5115100;28;20187;-69
2022/11/26 11:03:24;;;;;;;30.13;20.90;;;6.00;99.90;;;;;;5112095;28;20664;-65
2022/11/26 11:06:27;;;;;;;35.90;21.57;;;6.10;99.90;;;;;;5113155;28;20186;-66
2022/11/26 11:08:57;;;;;;;39.33;21.67;;;6.20;99.90;;;;;;5114946;28;20208;-66
2022/11/26 11:11:28;;;;;;;40.07;21.70;;;6.20;99.90;;;;;;5115063;28;20196;-67
2022/11/26 11:13:57;;;;;;;43.13;23.67;;;6.30;99.90;;;;;;5114719;28;20595;-66
2022/11/26 11:16:28;;;;;;;51.70;25.30;;;6.20;99.90;;;;;;5114973;28;20191;-66
2022/11/26 11:18:58;;;;;;;38.17;22.07;;;6.20;99.90;;;;;;5114875;28;20222;-65
2022/11/26 11:21:30;;;;;;;33.03;20.07;;;6.10;99.90;;;;;;5114835;28;20201;-67
2022/11/26 11:24:14;;;;;;;34.43;22.07;;;6.00;99.90;;;;;;5114720;28;20199;-73
2022/11/26 11:26:45;;;;;;;45.53;25.17;;;6.00;99.90;;;;;;5114579;28;20717;-67
2022/11/26 11:29:32;;;;;;;31.93;21.60;;;6.10;99.90;;;;;;5114478;28;20188;-67
2022/11/26 11:32:03;;;;;;;35.23;20.63;;;6.10;99.90;;;;;;5114351;28;20199;-66
2022/11/26 11:34:34;;;;;;;38.03;21.97;;;6.10;99.90;;;;;;5119585;27;20263;-65
2022/11/26 11:37:05;;;;;;;32.07;21.60;;;6.10;99.90;;;;;;5134891;27;20191;-66
2022/11/26 11:39:38;;;;;;;35.57;21.47;;;6.10;99.90;;;;;;5134902;27;20202;-69
2022/11/26 11:42:20;;;;;;;28.67;18.67;;;6.10;99.90;;;;;;5134851;27;20544;-70
2022/11/26 11:44:51;;;;;;;31.13;19.87;;;6.10;99.90;;;;;;5134121;27;20202;-69
2022/11/26 11:47:30;;;;;;;30.03;19.90;;;6.00;99.90;;;;;;5134775;27;20197;-66
2022/11/26 11:50:16;;;;;;;33.93;20.87;;;6.00;99.90;;;;;;5116364;27;20568;-66
2022/11/26 11:52:56;;;;;;;44.87;21.30;;;6.00;99.90;;;;;;5134634;27;20291;-66
2022/11/26 11:55:36;;;;;;;36.17;21.23;;;6.00;99.90;;;;;;5134604;27;20187;-67
2022/11/26 11:58:26;;;;;;;43.03;24.90;;;6.00;99.90;;;;;;5134564;27;20654;-85
2022/11/26 12:01:03;;;;;;;36.43;22.67;;;6.00;99.90;;;;;;5134762;27;20622;-68
2022/11/26 12:03:53;;;;;;;31.10;20.70;;;6.00;99.90;;;;;;5129914;27;20649;-67
2022/11/26 12:06:30;;;;;;;33.67;20.90;;;6.00;99.90;;;;;;5133593;27;20739;-85
2022/11/26 12:09:07;;;;;;;30.27;20.10;;;5.90;99.90;;;;;;5133128;27;20213;-65
2022/11/26 12:11:52;;;;;;;30.03;19.57;;;5.90;99.90;;;;;;5134962;27;20204;-66
2022/11/26 12:14:24;;;;;;;36.77;22.17;;;6.00;99.90;;;;;;5134382;27;20223;-67
2022/11/26 12:16:57;;;;;;;29.83;19.50;;;6.00;99.90;;;;;;5134467;27;20198;-65
2022/11/26 12:19:34;;;;;;;29.00;19.67;;;6.00;99.90;;;;;;5134266;27;20602;-66
2022/11/26 12:22:08;;;;;;;32.33;19.77;;;6.00;99.90;;;;;;5134947;27;20271;-64
2022/11/26 12:24:44;;;;;;;34.57;21.23;;;6.00;99.90;;;;;;5135495;27;20249;-64
2022/11/26 12:27:26;;;;;;;59.83;32.80;;;6.00;99.90;;;;;;5141089;27;20225;-82
2022/11/26 12:29:58;;;;;;;36.07;21.50;;;6.00;99.90;;;;;;5133727;27;20202;-74
2022/11/26 12:32:34;;;;;;;32.43;21.00;;;6.00;99.90;;;;;;5120492;27;20188;-68
2022/11/26 12:35:10;;;;;;;32.53;19.57;;;6.00;99.90;;;;;;5109370;28;20228;-85
2022/11/26 12:37:41;;;;;;;29.53;19.63;;;6.00;99.90;;;;;;5113199;28;20246;-77
2022/11/26 12:40:24;;;;;;;29.93;19.03;;;6.00;99.90;;;;;;5129534;27;20246;-67
2022/11/26 12:43:00;;;;;;;36.23;21.37;;;6.00;99.90;;;;;;5133535;27;20279;-67
2022/11/26 12:45:41;;;;;;;30.87;21.07;;;6.00;99.90;;;;;;5133591;27;20194;-66
2022/11/26 12:48:20;;;;;;;37.53;22.37;;;6.00;99.90;;;;;;5133217;27;20195;-79
2022/11/26 12:50:55;;;;;;;35.57;20.83;;;6.10;99.90;;;;;;5133654;27;20272;-70
2022/11/26 12:53:37;;;;;;;34.60;22.57;;;6.10;99.90;;;;;;5133296;27;20257;-68
2022/11/26 12:56:13;;;;;;;36.27;22.40;;;6.10;99.90;;;;;;5132763;27;20294;-75
2022/11/26 12:58:51;;;;;;;35.20;21.60;;;6.20;99.90;;;;;;5133244;27;20634;-66